Time;durP1;ratioP1;P1;durP2;ratioP2;P2;SDS_P1;SDS_P2;PMS_P1;PMS_P2;Temp;Humidity;BMP_temperature;BMP_pressure;BME280_temperature;BME280_humidity;BME280_pressure;Samples;Min_cycle;Max_cycle;Signal;HPM_P1;HPM_P2
2024/01/10 00:01:51;;;;;;;16.63;9.85;;;;;;;-2.56;51.91;102173.16;5083829;28;20024;-74
2024/01/10 00:04:16;;;;;;;16.98;10.07;;;;;;;-2.72;51.53;102154.78;5079498;28;20027;-74
2024/01/10 00:06:43;;;;;;;24.77;9.90;;;;;;;-2.77;51.66;102157.41;5076564;28;20036;-75
2024/01/10 00:09:08;;;;;;;17.63;9.77;;;;;;;-2.85;52.02;102156.56;5087003;28;20039;-74
2024/01/10 00:11:34;;;;;;;17.40;9.75;;;;;;;-2.76;52.10;102170.59;5073370;28;20028;-75
2024/01/10 00:13:59;;;;;;;26.45;9.48;;;;;;;-2.65;51.40;102167.03;5079937;28;20230;-76
2024/01/10 00:16:26;;;;;;;18.10;10.43;;;;;;;-2.61;51.32;102163.53;5081049;28;20028;-75
2024/01/10 00:18:52;;;;;;;18.95;11.15;;;;;;;-2.67;51.59;102160.91;5075583;28;20025;-74
2024/01/10 00:21:18;;;;;;;15.07;9.57;;;;;;;-2.64;51.52;102172.31;5069980;28;20035;-77
2024/01/10 00:23:43;;;;;;;23.08;10.85;;;;;;;-2.65;51.38;102169.66;5069220;28;20404;-74
2024/01/10 00:26:09;;;;;;;25.77;10.70;;;;;;;-2.59;51.27;102175.81;5069776;28;20492;-75
2024/01/10 00:28:34;;;;;;;13.90;9.95;;;;;;;-2.59;51.22;102182.81;5083389;28;20024;-77
2024/01/10 00:31:00;;;;;;;17.85;9.60;;;;;;;-2.61;50.93;102171.44;5089913;28;20016;-76
2024/01/10 00:33:25;;;;;;;19.65;10.15;;;;;;;-2.42;50.64;102203.00;5090007;28;20548;-76
2024/01/10 00:35:51;;;;;;;17.00;9.50;;;;;;;-2.50;50.89;102199.47;5092725;28;20529;-74
2024/01/10 00:38:16;;;;;;;19.08;9.07;;;;;;;-2.49;50.46;102200.34;5096252;28;20110;-73
2024/01/10 00:40:42;;;;;;;19.73;11.25;;;;;;;-2.50;50.58;102210.00;5090248;28;20046;-74
2024/01/10 00:43:07;;;;;;;14.68;9.80;;;;;;;-2.49;50.86;102193.34;5090237;28;20400;-74
2024/01/10 00:45:33;;;;;;;18.35;11.32;;;;;;;-2.43;50.80;102206.50;5089616;28;20111;-73
2024/01/10 00:47:59;;;;;;;14.57;9.85;;;;;;;-2.41;50.89;102215.25;5089697;28;20016;-76
2024/01/10 00:50:24;;;;;;;17.98;9.90;;;;;;;-2.53;49.91;102196.84;5090011;28;20064;-75
2024/01/10 00:52:50;;;;;;;17.02;9.20;;;;;;;-2.63;50.17;102213.53;5089515;28;20028;-74
2024/01/10 00:55:15;;;;;;;19.10;9.90;;;;;;;-2.64;50.93;102214.44;5088144;28;20059;-73
2024/01/10 00:57:41;;;;;;;17.85;9.82;;;;;;;-2.73;51.26;102211.84;5089024;28;20031;-75
2024/01/10 01:00:09;;;;;;;22.88;11.55;;;;;;;-2.73;50.91;102203.06;5088942;28;20059;-73
2024/01/10 01:02:34;;;;;;;18.88;10.02;;;;;;;-2.77;51.04;102204.81;5089322;28;20028;-74
2024/01/10 01:05:00;;;;;;;23.63;10.32;;;;;;;-2.89;51.08;102210.97;5089787;28;20043;-74
2024/01/10 01:07:26;;;;;;;19.20;9.35;;;;;;;-2.85;51.63;102211.84;5089098;28;20047;-75
2024/01/10 01:09:52;;;;;;;14.18;9.45;;;;;;;-2.86;51.26;102210.09;5089289;28;20460;-73
2024/01/10 01:12:17;;;;;;;17.15;10.77;;;;;;;-3.02;51.27;102176.75;5087810;28;20065;-75
2024/01/10 01:14:43;;;;;;;14.55;9.88;;;;;;;-2.94;51.81;102190.81;5089630;28;20048;-73
2024/01/10 01:17:09;;;;;;;15.38;9.73;;;;;;;-3.04;51.67;102168.88;5089434;28;20457;-75
2024/01/10 01:19:34;;;;;;;19.65;10.70;;;;;;;-2.78;51.24;102205.69;5089758;28;20413;-73
2024/01/10 01:22:00;;;;;;;16.20;10.30;;;;;;;-2.99;51.30;102166.22;5089154;28;20016;-75
2024/01/10 01:24:25;;;;;;;21.85;11.38;;;;;;;-2.75;51.59;102208.31;5091303;28;20040;-74
2024/01/10 01:26:52;;;;;;;18.48;10.73;;;;;;;-2.85;51.25;102185.53;5100291;28;20721;-76
2024/01/10 01:29:17;;;;;;;23.20;10.25;;;;;;;-2.74;51.35;102210.06;5091113;28;20075;-75
2024/01/10 01:31:43;;;;;;;18.13;10.88;;;;;;;-2.81;50.69;102203.03;5089067;28;20058;-76
2024/01/10 01:34:09;;;;;;;17.60;10.30;;;;;;;-2.80;50.71;102195.16;5088236;28;20457;-75
2024/01/10 01:36:34;;;;;;;17.30;11.02;;;;;;;-2.81;51.04;102200.41;5087513;28;20036;-75
2024/01/10 01:39:00;;;;;;;21.35;10.43;;;;;;;-2.92;50.92;102189.03;5088416;28;20069;-75
2024/01/10 01:41:25;;;;;;;18.02;10.52;;;;;;;-2.88;50.91;102198.69;5088743;28;20051;-75
2024/01/10 01:43:51;;;;;;;19.77;11.10;;;;;;;-3.18;51.36;102169.78;5088358;28;20028;-74
2024/01/10 01:46:17;;;;;;;14.45;9.50;;;;;;;-3.07;51.35;102183.78;5085428;28;20444;-74
2024/01/10 01:48:43;;;;;;;16.13;9.82;;;;;;;-3.14;51.68;102179.41;5085827;28;20064;-74
2024/01/10 01:51:10;;;;;;;15.88;10.10;;;;;;;-3.22;51.42;102173.28;5085519;28;20052;-76
2024/01/10 01:53:36;;;;;;;18.30;11.75;;;;;;;-3.17;51.35;102187.28;5085407;28;20403;-74
2024/01/10 01:56:06;;;;;;;19.95;11.43;;;;;;;-3.25;52.01;102182.06;5085290;28;20135;-74
2024/01/10 01:58:33;;;;;;;17.15;10.63;;;;;;;-3.32;51.90;102189.06;5085557;28;20032;-75
2024/01/10 02:01:01;;;;;;;18.63;11.38;;;;;;;-3.60;52.41;102157.47;5085378;28;20036;-75
2024/01/10 02:03:26;;;;;;;18.92;11.52;;;;;;;-3.45;52.60;102203.06;5085062;28;20426;-74
2024/01/10 02:05:52;;;;;;;17.15;10.43;;;;;;;-3.43;52.22;102188.19;5085314;28;20048;-76
2024/01/10 02:08:17;;;;;;;16.35;9.90;;;;;;;-3.44;52.72;102178.53;5086246;28;20217;-75
2024/01/10 02:10:43;;;;;;;18.23;10.95;;;;;;;-3.56;52.82;102140.84;5085415;28;20028;-74
2024/01/10 02:13:10;;;;;;;19.80;10.73;;;;;;;-3.47;52.54;102177.66;5084819;28;20032;-75
2024/01/10 02:15:38;;;;;;;19.63;9.88;;;;;;;-3.52;52.88;102182.94;5089082;28;20032;-74
2024/01/10 02:18:05;;;;;;;20.80;9.93;;;;;;;-3.49;52.25;102180.31;5082187;28;20068;-74
2024/01/10 02:20:31;;;;;;;19.55;10.40;;;;;;;-3.46;53.07;102180.31;5070201;28;20114;-75
2024/01/10 02:22:57;;;;;;;17.73;11.30;;;;;;;-3.60;53.40;102137.31;5089119;28;20086;-74
2024/01/10 02:25:22;;;;;;;22.58;12.00;;;;;;;-3.44;53.50;102160.13;5088168;28;20059;-74
2024/01/10 02:27:48;;;;;;;20.98;10.85;;;;;;;-3.56;53.02;102125.06;5088735;28;20035;-76
2024/01/10 02:30:14;;;;;;;17.42;10.52;;;;;;;-3.25;53.37;102162.75;5088460;28;20028;-75
2024/01/10 02:32:40;;;;;;;18.58;10.88;;;;;;;-3.21;53.02;102159.25;5087715;28;20028;-73
2024/01/10 02:35:06;;;;;;;21.95;11.35;;;;;;;-3.38;52.44;102161.88;5088001;28;20135;-75
2024/01/10 02:37:32;;;;;;;18.25;10.48;;;;;;;-3.32;52.86;102162.75;5088023;28;20475;-75
2024/01/10 02:39:57;;;;;;;21.33;11.52;;;;;;;-3.31;53.31;102156.63;5087143;28;20036;-74
2024/01/10 02:42:23;;;;;;;21.00;11.93;;;;;;;-3.26;52.66;102146.09;5087943;28;20059;-75
2024/01/10 02:44:48;;;;;;;20.33;10.75;;;;;;;-3.21;52.74;102154.00;5086017;28;20024;-75
2024/01/10 02:47:14;;;;;;;17.45;10.95;;;;;;;-3.25;52.61;102158.38;5087177;28;20020;-76
2024/01/10 02:49:39;;;;;;;27.65;11.55;;;;;;;-3.17;52.95;102161.00;5087867;28;20063;-75
2024/01/10 02:52:05;;;;;;;18.90;11.27;;;;;;;-3.20;52.80;102163.63;5087410;28;20043;-74
2024/01/10 02:54:31;;;;;;;21.23;12.18;;;;;;;-3.21;52.85;102177.66;5087780;28;20577;-74
2024/01/10 02:56:56;;;;;;;21.55;11.38;;;;;;;-3.32;53.10;102170.66;5087257;28;20077;-75
2024/01/10 02:59:22;;;;;;;22.15;11.90;;;;;;;-3.33;52.76;102160.13;5088370;28;20126;-75
2024/01/10 03:01:47;;;;;;;22.10;10.82;;;;;;;-3.29;52.72;102169.78;5087734;28;20021;-74
2024/01/10 03:04:13;;;;;;;29.73;12.35;;;;;;;-3.26;52.80;102176.78;5091579;28;20031;-76
2024/01/10 03:06:38;;;;;;;21.23;12.07;;;;;;;-3.22;52.45;102170.66;5096017;28;20092;-74
2024/01/10 03:09:04;;;;;;;21.90;12.57;;;;;;;-3.41;52.99;102165.38;5088691;28;20077;-73
2024/01/10 03:11:30;;;;;;;21.70;11.07;;;;;;;-3.48;53.07;102171.50;5087153;28;20020;-73
2024/01/10 03:14:10;;;;;;;21.17;11.25;;;;;;;-3.46;52.86;102172.41;5087230;28;20445;-75
2024/01/10 03:16:36;;;;;;;21.10;11.60;;;;;;;-3.69;53.09;102142.56;5087618;28;20036;-76
2024/01/10 03:19:02;;;;;;;16.95;9.95;;;;;;;-3.50;52.85;102168.03;5084500;28;20409;-76
2024/01/10 03:21:27;;;;;;;17.48;10.68;;;;;;;-3.42;53.67;102178.53;5087304;28;20032;-74
2024/01/10 03:23:58;;;;;;;18.70;10.13;;;;;;;-3.33;53.08;102168.88;5086978;28;20032;-75
2024/01/10 03:26:25;;;;;;;23.38;10.80;;;;;;;-3.43;52.63;102164.53;5087013;28;20037;-76
2024/01/10 03:28:51;;;;;;;20.58;10.68;;;;;;;-3.51;53.21;102145.22;5085424;28;20415;-74
2024/01/10 03:31:17;;;;;;;19.45;10.43;;;;;;;-3.44;53.98;102131.19;5087357;28;20032;-76
2024/01/10 03:33:43;;;;;;;16.30;10.68;;;;;;;-3.35;53.37;102157.50;5087185;28;20028;-73
2024/01/10 03:36:13;;;;;;;16.75;10.27;;;;;;;-3.46;53.15;102147.88;5087255;28;20052;-75
2024/01/10 03:38:39;;;;;;;20.23;12.25;;;;;;;-3.50;54.02;102154.88;5086708;28;20035;-75
2024/01/10 03:41:05;;;;;;;19.77;11.02;;;;;;;-3.49;53.68;102154.00;5087103;28;20028;-74
2024/01/10 03:43:30;;;;;;;18.30;10.57;;;;;;;-3.52;53.59;102159.25;5086733;28;20039;-74
2024/01/10 03:45:57;;;;;;;18.85;11.43;;;;;;;-3.78;54.89;102142.56;5087115;28;20076;-74
2024/01/10 03:48:23;;;;;;;24.80;12.00;;;;;;;-3.67;54.97;102159.22;5088075;28;20028;-75
2024/01/10 03:50:48;;;;;;;21.05;12.43;;;;;;;-3.66;54.84;102150.47;5087199;28;20393;-74
2024/01/10 03:53:14;;;;;;;19.42;10.73;;;;;;;-3.57;54.51;102158.34;5091168;28;20024;-75
2024/01/10 03:55:39;;;;;;;18.33;10.15;;;;;;;-3.56;54.47;102156.63;5097904;28;20567;-73
2024/01/10 03:58:05;;;;;;;22.73;11.00;;;;;;;-3.58;54.59;102143.47;5088357;28;20016;-74
2024/01/10 04:00:31;;;;;;;18.67;11.10;;;;;;;-3.83;54.93;102117.16;5090034;28;20027;-74
2024/01/10 04:02:56;;;;;;;21.25;10.35;;;;;;;-3.69;54.65;102137.31;5093492;28;20063;-73
2024/01/10 04:05:24;;;;;;;18.23;10.65;;;;;;;-3.49;54.78;102161.00;5090173;28;20116;-75
2024/01/10 04:07:50;;;;;;;17.70;11.05;;;;;;;-3.47;54.98;102170.66;5089962;28;20170;-74
2024/01/10 04:10:15;;;;;;;21.73;10.88;;;;;;;-3.64;55.54;102164.47;5090726;28;20111;-75
2024/01/10 04:12:41;;;;;;;17.55;10.93;;;;;;;-3.53;55.96;102168.00;5087566;28;20047;-76
2024/01/10 04:15:07;;;;;;;19.80;10.98;;;;;;;-3.67;55.36;102132.06;5090154;28;20093;-75
2024/01/10 04:17:32;;;;;;;31.98;12.68;;;;;;;-3.55;55.39;102143.47;5089907;28;20058;-75
2024/01/10 04:19:58;;;;;;;30.92;15.32;;;;;;;-3.43;55.56;102148.75;5089826;28;20416;-75
2024/01/10 04:22:24;;;;;;;22.48;12.18;;;;;;;-3.38;55.91;102170.66;5089162;28;20032;-75
2024/01/10 04:24:50;;;;;;;40.10;12.02;;;;;;;-3.30;55.68;102157.47;5089898;28;20039;-72
2024/01/10 04:27:16;;;;;;;15.82;10.32;;;;;;;-3.30;55.12;102182.03;5089460;28;20020;-76
2024/01/10 04:29:42;;;;;;;19.95;11.20;;;;;;;-3.56;55.07;102136.47;5089435;28;20031;-75
2024/01/10 04:32:07;;;;;;;16.77;10.80;;;;;;;-3.25;54.99;102179.41;5089624;28;20116;-74
2024/01/10 04:34:33;;;;;;;23.92;10.05;;;;;;;-3.24;55.65;102178.53;5089408;28;20048;-74
2024/01/10 04:36:58;;;;;;;22.40;11.48;;;;;;;-3.24;54.98;102173.25;5090151;28;20103;-75
2024/01/10 04:39:24;;;;;;;19.92;10.35;;;;;;;-3.15;55.06;102182.94;5089595;28;20147;-75
2024/01/10 04:41:49;;;;;;;16.88;10.48;;;;;;;-3.14;54.95;102193.44;5091608;28;20024;-74
2024/01/10 04:44:15;;;;;;;16.05;9.85;;;;;;;-3.20;54.67;102201.34;5099168;28;20024;-74
2024/01/10 04:46:41;;;;;;;20.67;11.25;;;;;;;-3.23;55.05;102192.56;5094824;28;20124;-74
2024/01/10 04:49:07;;;;;;;20.35;9.35;;;;;;;-3.41;55.30;102162.75;5089594;28;20047;-75
2024/01/10 04:51:33;;;;;;;14.60;9.45;;;;;;;-3.32;55.18;102183.81;5087834;28;20445;-75
2024/01/10 04:53:58;;;;;;;18.23;9.88;;;;;;;-3.33;54.78;102197.81;5087893;28;20032;-77
2024/01/10 04:56:25;;;;;;;26.10;10.27;;;;;;;-3.30;55.73;102195.19;5089422;28;20043;-77
2024/01/10 04:58:50;;;;;;;18.83;9.43;;;;;;;-3.24;55.26;102196.09;5089119;28;20029;-76
2024/01/10 05:01:17;;;;;;;21.63;11.70;;;;;;;-3.31;55.12;102201.34;5089465;28;20047;-77
2024/01/10 05:03:46;;;;;;;27.17;13.13;;;;;;;-3.30;55.34;102207.47;5089471;28;20107;-76
2024/01/10 05:06:11;;;;;;;18.02;9.63;;;;;;;-3.38;54.80;102199.59;5087562;28;20032;-74
2024/01/10 05:08:37;;;;;;;23.00;10.18;;;;;;;-3.32;54.80;102203.97;5089560;28;20020;-77
2024/01/10 05:11:02;;;;;;;20.33;10.77;;;;;;;-3.42;55.29;102208.34;5089200;28;20055;-75
2024/01/10 05:13:28;;;;;;;17.85;9.77;;;;;;;-3.59;54.84;102194.31;5089425;28;20110;-73
2024/01/10 05:15:54;;;;;;;18.23;9.27;;;;;;;-3.38;54.61;102227.63;5088923;28;20028;-75
2024/01/10 05:18:21;;;;;;;20.30;10.07;;;;;;;-3.43;55.49;102221.50;5088952;28;20024;-76
2024/01/10 05:20:46;;;;;;;17.65;9.38;;;;;;;-3.38;54.77;102231.16;5089189;28;20038;-75
2024/01/10 05:23:12;;;;;;;13.27;8.85;;;;;;;-3.36;54.40;102223.25;5087935;28;20036;-76
2024/01/10 05:25:38;;;;;;;23.17;9.68;;;;;;;-3.42;54.86;102224.13;5089556;28;20483;-75
2024/01/10 05:28:03;;;;;;;13.98;9.23;;;;;;;-3.65;53.81;102193.41;5089534;28;20028;-74
2024/01/10 05:30:29;;;;;;;23.67;8.88;;;;;;;-3.45;53.91;102210.97;5088436;28;20032;-75
2024/01/10 05:32:55;;;;;;;22.90;9.90;;;;;;;-3.37;54.24;102239.91;5096982;28;20069;-76
2024/01/10 05:35:21;;;;;;;17.50;9.93;;;;;;;-3.56;53.96;102210.09;5094296;28;20603;-76
2024/01/10 05:37:46;;;;;;;30.88;12.00;;;;;;;-3.49;54.02;102219.75;5088826;28;20214;-76
2024/01/10 05:40:12;;;;;;;12.00;7.85;;;;;;;-3.43;53.48;102238.16;5089037;28;20032;-76
2024/01/10 05:42:37;;;;;;;10.90;8.27;;;;;;;-3.40;54.42;102222.38;5088418;28;20031;-72
2024/01/10 05:45:04;;;;;;;14.52;8.70;;;;;;;-3.26;54.50;102229.38;5086626;28;20194;-74
2024/01/10 05:47:30;;;;;;;21.33;9.38;;;;;;;-3.28;53.65;102225.91;5088285;28;20098;-76
2024/01/10 05:49:55;;;;;;;19.50;8.73;;;;;;;-3.19;53.80;102246.94;5087199;28;20032;-77
2024/01/10 05:52:22;;;;;;;17.90;8.35;;;;;;;-3.27;52.63;102207.47;5088716;28;20081;-78
2024/01/10 05:54:48;;;;;;;16.40;9.63;;;;;;;-3.07;52.50;102237.31;5088277;28;20031;-74
2024/01/10 05:57:16;;;;;;;14.70;8.43;;;;;;;-3.33;52.00;102194.31;5087029;28;20039;-75
2024/01/10 05:59:42;;;;;;;23.63;9.05;;;;;;;-3.19;51.91;102236.41;5086711;28;20438;-76
2024/01/10 06:02:08;;;;;;;19.92;8.57;;;;;;;-3.19;52.20;102236.41;5088130;28;20043;-76
2024/01/10 06:04:33;;;;;;;21.83;7.95;;;;;;;-3.23;51.43;102224.13;5087791;28;20020;-74
2024/01/10 06:06:59;;;;;;;13.50;7.32;;;;;;;-3.25;51.74;102241.69;5088009;28;20031;-76
2024/01/10 06:09:24;;;;;;;14.30;7.72;;;;;;;-3.26;51.56;102239.91;5088101;28;20109;-75
2024/01/10 06:11:50;;;;;;;16.98;7.15;;;;;;;-3.27;51.09;102233.78;5088553;28;20032;-75
2024/01/10 06:14:16;;;;;;;11.18;7.63;;;;;;;-3.22;50.60;102221.53;5089344;28;20047;-77
2024/01/10 06:16:41;;;;;;;14.75;7.18;;;;;;;-3.23;50.94;102242.53;5104762;28;20031;-74
2024/01/10 06:19:07;;;;;;;16.17;8.27;;;;;;;-3.09;50.72;102251.34;5088624;28;20024;-74
2024/01/10 06:21:32;;;;;;;8.35;6.68;;;;;;;-3.01;49.60;102257.47;5095849;28;20915;-78
2024/01/10 06:23:58;;;;;;;9.63;5.80;;;;;;;-2.98;50.34;102253.09;5104756;28;20042;-74
2024/01/10 06:26:23;;;;;;;11.35;6.80;;;;;;;-2.82;50.12;102264.50;5095232;28;20087;-74
2024/01/10 06:28:49;;;;;;;8.82;6.20;;;;;;;-2.82;49.68;102269.75;5089021;28;20075;-73
2024/01/10 06:31:14;;;;;;;17.98;7.72;;;;;;;-2.88;49.52;102238.19;5087594;28;20121;-73
2024/01/10 06:33:40;;;;;;;9.52;6.32;;;;;;;-2.60;49.26;102263.56;5086916;28;20181;-75
2024/01/10 06:36:06;;;;;;;40.17;9.38;;;;;;;-2.48;49.43;102279.41;5087116;28;20108;-71
2024/01/10 06:38:31;;;;;;;15.82;6.97;;;;;;;-2.34;49.14;102285.50;5088552;28;20036;-74
2024/01/10 06:40:56;;;;;;;16.17;7.45;;;;;;;-2.24;48.96;102284.59;5087698;28;20396;-74
2024/01/10 06:43:22;;;;;;;43.53;9.23;;;;;;;-2.21;48.59;102284.59;5087982;28;20043;-72
2024/01/10 06:45:48;;;;;;;12.82;6.22;;;;;;;-2.03;48.35;102290.69;5087041;28;20136;-75
2024/01/10 06:48:14;;;;;;;8.98;5.65;;;;;;;-1.94;48.16;102290.66;5088024;28;20031;-73
2024/01/10 06:50:40;;;;;;;9.93;5.97;;;;;;;-1.92;47.49;102262.50;5086523;28;20036;-76
2024/01/10 06:53:05;;;;;;;13.77;6.03;;;;;;;-1.83;47.25;102304.66;5088077;28;20063;-74
2024/01/10 06:55:31;;;;;;;9.65;4.72;;;;;;;-1.89;45.61;102288.88;5087862;28;20027;-73
2024/01/10 06:57:56;;;;;;;10.95;7.63;;;;;;;-1.99;45.42;102255.53;5087868;28;20024;-75
2024/01/10 07:00:22;;;;;;;20.65;6.03;;;;;;;-1.73;45.72;102288.81;5086879;28;20028;-74
2024/01/10 07:02:48;;;;;;;16.08;7.28;;;;;;;-1.65;45.26;102299.31;5088395;28;20043;-73
2024/01/10 07:05:14;;;;;;;12.32;7.25;;;;;;;-1.66;45.15;102292.31;5088357;28;20038;-76
2024/01/10 07:07:40;;;;;;;18.08;6.97;;;;;;;-1.58;45.39;102279.06;5088341;28;20028;-74
2024/01/10 07:10:06;;;;;;;18.17;7.25;;;;;;;-1.39;44.90;102286.88;5092920;28;20100;-76
2024/01/10 07:12:33;;;;;;;16.33;8.75;;;;;;;-1.33;44.66;102294.75;5095195;28;20079;-73
2024/01/10 07:14:59;;;;;;;18.10;7.07;;;;;;;-1.27;44.88;102297.34;5095723;28;20113;-73
2024/01/10 07:17:24;;;;;;;21.83;6.72;;;;;;;-1.18;44.93;102305.22;5089378;28;20028;-74
2024/01/10 07:19:50;;;;;;;13.05;6.53;;;;;;;-1.19;45.13;102284.97;5086995;28;20082;-73
2024/01/10 07:22:16;;;;;;;17.42;7.32;;;;;;;-0.99;44.47;102297.16;5087433;28;20166;-76
2024/01/10 07:24:41;;;;;;;12.00;7.20;;;;;;;-1.17;44.61;102277.94;5087651;28;20032;-75
2024/01/10 07:27:07;;;;;;;20.48;13.60;;;;;;;-1.15;44.43;102260.31;5087808;28;20039;-75
2024/01/10 07:29:34;;;;;;;22.52;9.73;;;;;;;-0.94;44.29;102298.88;5087561;28;20028;-75
2024/01/10 07:32:00;;;;;;;14.07;7.60;;;;;;;-0.92;44.69;102293.59;5086725;28;20448;-74
2024/01/10 07:34:25;;;;;;;8.23;6.20;;;;;;;-0.96;44.75;102294.50;5087269;28;20048;-75
2024/01/10 07:36:51;;;;;;;9.52;7.05;;;;;;;-1.01;44.74;102299.84;5091224;28;20032;-75
2024/01/10 07:39:18;;;;;;;20.80;7.82;;;;;;;-1.06;45.13;102306.00;5091132;28;20036;-75
2024/01/10 07:41:44;;;;;;;15.48;7.72;;;;;;;-1.05;45.51;102306.00;5091445;28;20068;-74
2024/01/10 07:44:09;;;;;;;11.07;7.55;;;;;;;-0.98;45.96;102309.50;5090613;28;20036;-75
2024/01/10 07:46:37;;;;;;;23.13;7.50;;;;;;;-0.97;45.85;102300.66;5090421;28;20031;-74
2024/01/10 07:49:04;;;;;;;12.95;7.05;;;;;;;-0.95;45.58;102304.19;5091341;28;20096;-74
2024/01/10 07:51:30;;;;;;;8.77;5.90;;;;;;;-0.93;45.80;102307.69;5091232;28;20031;-73
2024/01/10 07:53:56;;;;;;;15.00;6.78;;;;;;;-0.94;46.29;102303.28;5092427;28;20480;-76
2024/01/10 07:56:22;;;;;;;12.00;6.60;;;;;;;-0.97;45.60;102284.81;5091372;28;20035;-76
2024/01/10 07:58:48;;;;;;;13.75;8.70;;;;;;;-0.91;46.24;102311.19;5094087;28;20034;-74
2024/01/10 08:01:15;;;;;;;9.25;6.22;;;;;;;-0.92;45.94;102299.75;5092358;28;20073;-74
2024/01/10 08:03:41;;;;;;;12.90;7.30;;;;;;;-0.82;46.08;102305.81;5090975;28;20120;-74
2024/01/10 08:06:07;;;;;;;9.82;5.25;;;;;;;-1.01;45.65;102284.00;5090460;28;20051;-74
2024/01/10 08:08:32;;;;;;;18.25;7.72;;;;;;;-0.82;45.65;102306.72;5089758;28;20106;-75
2024/01/10 08:10:58;;;;;;;16.17;7.88;;;;;;;-0.78;45.88;102316.38;5090283;28;20606;-74
2024/01/10 08:13:24;;;;;;;11.10;6.35;;;;;;;-0.93;45.41;102302.41;5089184;28;20025;-76
2024/01/10 08:15:49;;;;;;;16.00;6.45;;;;;;;-1.12;45.09;102280.53;5089349;28;20032;-74
2024/01/10 08:18:15;;;;;;;21.98;7.07;;;;;;;-1.00;45.94;102306.84;5090958;28;20043;-77
2024/01/10 08:20:40;;;;;;;14.48;6.55;;;;;;;-0.93;45.71;102321.75;5090704;28;20028;-74
2024/01/10 08:23:06;;;;;;;9.90;6.03;;;;;;;-1.03;45.92;102292.78;5089871;28;20559;-75
2024/01/10 08:25:31;;;;;;;9.35;6.43;;;;;;;-0.98;45.95;102318.28;5090212;28;20020;-75
2024/01/10 08:27:57;;;;;;;30.75;8.82;;;;;;;-0.98;45.86;102322.69;5104990;28;20470;-75
2024/01/10 08:30:23;;;;;;;10.43;6.40;;;;;;;-0.96;46.41;102311.22;5090486;28;20096;-74
2024/01/10 08:32:49;;;;;;;19.35;7.32;;;;;;;-0.97;46.03;102305.94;5090242;28;20096;-75
2024/01/10 08:35:15;;;;;;;7.15;5.80;;;;;;;-0.76;45.89;102326.91;5090249;28;20052;-74
2024/01/10 08:37:44;;;;;;;10.30;6.85;;;;;;;-0.75;46.57;102312.81;5090738;28;20079;-74
2024/01/10 08:40:12;;;;;;;12.75;6.13;;;;;;;-0.60;46.25;102318.84;5090771;28;20024;-74
2024/01/10 08:42:38;;;;;;;12.07;7.00;;;;;;;-0.71;46.35;102285.50;5090516;28;20111;-74
2024/01/10 08:45:04;;;;;;;14.65;6.40;;;;;;;-0.63;46.62;102294.22;5089979;28;20032;-74
2024/01/10 08:47:32;;;;;;;12.60;6.97;;;;;;;-0.51;46.41;102301.16;5094640;28;20830;-74
2024/01/10 08:50:05;;;;;;;9.27;6.20;;;;;;;-0.33;45.89;102311.56;5097814;28;20085;-74
2024/01/10 08:52:31;;;;;;;9.27;6.45;;;;;;;-0.22;46.07;102321.16;5090842;28;20502;-75
2024/01/10 08:54:57;;;;;;;9.38;6.28;;;;;;;-0.10;45.45;102313.09;5104565;28;20048;-76
2024/01/10 08:57:23;;;;;;;7.80;5.63;;;;;;;-0.18;45.62;102285.84;5089373;28;20028;-78
2024/01/10 08:59:48;;;;;;;10.98;6.88;;;;;;;0.06;45.85;102311.16;5090091;28;20453;-73
2024/01/10 09:02:14;;;;;;;9.13;6.40;;;;;;;0.22;45.02;102315.34;5087437;28;20059;-74
2024/01/10 09:04:40;;;;;;;8.07;6.10;;;;;;;0.31;45.20;102314.34;5089908;28;20502;-75
2024/01/10 09:07:09;;;;;;;9.70;5.93;;;;;;;0.16;44.48;102285.44;5089386;28;20164;-74
2024/01/10 09:09:34;;;;;;;9.38;6.43;;;;;;;0.38;44.93;102309.00;5089278;28;20040;-74
2024/01/10 09:12:00;;;;;;;9.15;6.90;;;;;;;0.29;44.69;102277.34;5089278;28;20024;-74
2024/01/10 09:14:25;;;;;;;12.82;6.72;;;;;;;0.43;45.23;102300.97;5088901;28;20081;-74
2024/01/10 09:16:52;;;;;;;14.02;6.65;;;;;;;0.50;45.70;102303.53;5089162;28;20453;-76
2024/01/10 09:19:17;;;;;;;17.13;7.90;;;;;;;0.55;45.84;102290.25;5089152;28;20476;-74
2024/01/10 09:21:43;;;;;;;13.15;7.00;;;;;;;0.67;46.26;102302.44;5089515;28;20028;-76
2024/01/10 09:24:11;;;;;;;16.27;9.32;;;;;;;0.76;46.83;102297.00;5089107;28;20028;-73
2024/01/10 09:26:36;;;;;;;14.70;7.85;;;;;;;0.91;47.24;102302.09;5089086;28;20023;-74
2024/01/10 09:29:02;;;;;;;13.43;8.05;;;;;;;1.04;46.18;102301.84;5089416;28;20031;-75
2024/01/10 09:31:27;;;;;;;11.48;7.43;;;;;;;1.00;45.79;102284.28;5089521;28;20043;-73
2024/01/10 09:33:53;;;;;;;18.58;8.73;;;;;;;1.13;45.83;102270.84;5069611;28;20046;-73
2024/01/10 09:36:18;;;;;;;14.40;7.28;;;;;;;1.19;45.71;102274.25;5091465;28;20107;-73
2024/01/10 09:38:44;;;;;;;25.80;8.32;;;;;;;1.02;45.75;102240.09;5094511;28;20035;-75
2024/01/10 09:41:12;;;;;;;12.00;8.10;;;;;;;1.20;45.75;102259.22;5090207;28;20470;-74
2024/01/10 09:43:37;;;;;;;14.93;9.18;;;;;;;1.28;46.43;102255.56;5088802;28;20035;-74
2024/01/10 09:46:06;;;;;;;23.60;12.10;;;;;;;1.19;46.42;102230.97;5088855;28;20100;-74
2024/01/10 09:48:32;;;;;;;21.55;9.85;;;;;;;1.44;47.04;102251.72;5088510;28;20089;-73
2024/01/10 09:50:59;;;;;;;15.43;8.73;;;;;;;1.39;47.31;102250.06;5088478;28;20028;-74
2024/01/10 09:53:32;;;;;;;16.38;8.70;;;;;;;1.38;47.14;102232.38;5087966;28;20111;-76
2024/01/10 09:55:59;;;;;;;18.42;9.57;;;;;;;1.32;47.18;102246.63;5088391;28;20114;-75
2024/01/10 09:58:26;;;;;;;20.10;11.60;;;;;;;1.42;48.20;102236.75;5087832;28;20020;-75
2024/01/10 10:00:52;;;;;;;25.63;10.10;;;;;;;1.61;48.58;102233.75;5088237;28;20035;-75
2024/01/10 10:03:18;;;;;;;31.27;11.88;;;;;;;1.61;48.73;102231.09;5088514;28;20387;-73
2024/01/10 10:05:44;;;;;;;25.55;11.48;;;;;;;1.48;49.13;102195.09;5088637;28;20069;-72
2024/01/10 10:08:13;;;;;;;26.40;12.38;;;;;;;1.73;48.89;102219.34;5087978;28;20024;-74
2024/01/10 10:10:44;;;;;;;24.45;11.73;;;;;;;1.82;48.63;102210.34;5088542;28;20085;-75
2024/01/10 10:13:23;;;;;;;22.95;11.48;;;;;;;1.76;48.70;102203.38;5088026;28;20112;-73
2024/01/10 10:16:00;;;;;;;26.00;13.13;;;;;;;1.73;48.59;102208.75;5087942;28;20418;-75
2024/01/10 10:18:26;;;;;;;23.25;13.13;;;;;;;1.67;47.13;102200.91;5088500;28;20035;-75
2024/01/10 10:21:08;;;;;;;26.83;12.05;;;;;;;1.57;47.46;102181.66;5088072;28;20028;-74
2024/01/10 10:23:34;;;;;;;29.92;12.35;;;;;;;1.62;48.53;102189.53;5088287;28;20030;-74
2024/01/10 10:26:14;;;;;;;19.33;11.43;;;;;;;1.72;47.66;102184.91;5073931;28;20036;-74
2024/01/10 10:28:40;;;;;;;24.42;11.82;;;;;;;1.73;48.04;102176.03;5099424;28;20027;-76
2024/01/10 10:31:06;;;;;;;28.65;13.82;;;;;;;1.71;48.17;102168.13;5091074;28;20092;-75
2024/01/10 10:33:33;;;;;;;21.52;12.55;;;;;;;1.79;48.34;102165.31;5092978;28;20051;-75
2024/01/10 10:35:59;;;;;;;30.20;12.18;;;;;;;1.64;48.28;102139.97;5088038;28;20115;-75
2024/01/10 10:38:24;;;;;;;19.50;11.30;;;;;;;1.73;47.64;102176.94;5087754;28;20486;-75
2024/01/10 10:40:50;;;;;;;17.73;11.15;;;;;;;1.72;48.19;102153.94;5087864;28;20089;-75
2024/01/10 10:43:21;;;;;;;21.77;11.50;;;;;;;1.73;48.30;102155.72;5087934;28;20055;-76
2024/01/10 10:45:48;;;;;;;24.65;11.18;;;;;;;1.66;48.30;102140.81;5087415;28;20071;-74
2024/01/10 10:48:21;;;;;;;27.05;11.57;;;;;;;1.61;48.29;102130.31;5087170;28;20024;-77
2024/01/10 10:51:08;;;;;;;21.50;12.02;;;;;;;1.67;48.11;102117.81;5087610;28;20510;-74
2024/01/10 10:53:41;;;;;;;17.17;9.50;;;;;;;1.83;46.94;102149.31;5087058;28;20028;-71
2024/01/10 10:56:07;;;;;;;18.33;10.18;;;;;;;1.86;47.23;102135.97;5087288;28;20036;-73
2024/01/10 10:58:38;;;;;;;27.33;14.00;;;;;;;1.95;47.18;102156.13;5087564;28;20016;-73
2024/01/10 11:01:08;;;;;;;16.48;10.10;;;;;;;1.85;46.64;102139.53;5087647;28;20039;-74
2024/01/10 11:03:39;;;;;;;26.58;11.07;;;;;;;1.92;47.29;102146.47;5087374;28;20567;-73
2024/01/10 11:06:06;;;;;;;25.38;12.65;;;;;;;2.02;48.24;102153.28;5086709;28;20036;-73
2024/01/10 11:08:38;;;;;;;33.47;12.95;;;;;;;2.12;48.02;102138.03;5089199;28;20028;-74
2024/01/10 11:11:13;;;;;;;22.13;11.60;;;;;;;2.30;48.31;102132.31;5091847;28;20067;-74
2024/01/10 11:13:51;;;;;;;26.02;12.05;;;;;;;2.59;47.56;102134.28;5091993;28;20032;-73